sensor_id;sensor_type;location;lat;lon;timestamp;temperature;humidity
3542;DHT22;1785;47.388;8.538;2023-05-23T00:01:38;21.90;99.90
3542;DHT22;1785;47.388;8.538;2023-05-23T00:04:05;22.00;99.90
3542;DHT22;1785;47.388;8.538;2023-05-23T00:06:31;22.10;99.90
3542;DHT22;1785;47.388;8.538;2023-05-23T00:08:58;22.20;99.90
3542;DHT22;1785;47.388;8.538;2023-05-23T00:11:25;22.00;99.90
3542;DHT22;1785;47.388;8.538;2023-05-23T00:13:53;22.10;99.90
3542;DHT22;1785;47.388;8.538;2023-05-23T00:16:20;22.00;99.90
3542;DHT22;1785;47.388;8.538;2023-05-23T00:18:47;21.80;99.90
3542;DHT22;1785;47.388;8.538;2023-05-23T00:21:15;21.30;99.90
3542;DHT22;1785;47.388;8.538;2023-05-23T00:23:41;21.40;99.90
3542;DHT22;1785;47.388;8.538;2023-05-23T00:26:07;21.50;99.90
3542;DHT22;1785;47.388;8.538;2023-05-23T00:28:33;21.40;99.90
3542;DHT22;1785;47.388;8.538;2023-05-23T00:30:59;21.20;99.90
3542;DHT22;1785;47.388;8.538;2023-05-23T00:33:26;21.20;99.90
3542;DHT22;1785;47.388;8.538;2023-05-23T00:35:54;21.20;99.90
3542;DHT22;1785;47.388;8.538;2023-05-23T00:38:20;21.30;99.90
3542;DHT22;1785;47.388;8.538;2023-05-23T00:40:46;21.30;99.90
3542;DHT22;1785;47.388;8.538;2023-05-23T00:43:13;21.30;99.90
3542;DHT22;1785;47.388;8.538;2023-05-23T00:45:39;21.20;99.90
3542;DHT22;1785;47.388;8.538;2023-05-23T00:48:05;21.00;99.90
3542;DHT22;1785;47.388;8.538;2023-05-23T00:50:34;20.80;99.90
3542;DHT22;1785;47.388;8.538;2023-05-23T00:53:00;21.20;99.90
3542;DHT22;1785;47.388;8.538;2023-05-23T00:55:28;21.20;99.90
3542;DHT22;1785;47.388;8.538;2023-05-23T00:57:54;21.30;99.90
3542;DHT22;1785;47.388;8.538;2023-05-23T01:00:22;21.30;99.90
3542;DHT22;1785;47.388;8.538;2023-05-23T01:02:50;21.40;99.90
3542;DHT22;1785;47.388;8.538;2023-05-23T01:05:17;21.40;99.90
3542;DHT22;1785;47.388;8.538;2023-05-23T01:07:44;21.30;99.90
3542;DHT22;1785;47.388;8.538;2023-05-23T01:10:12;20.90;99.90
3542;DHT22;1785;47.388;8.538;2023-05-23T01:12:46;21.00;99.90
3542;DHT22;1785;47.388;8.538;2023-05-23T01:15:17;21.00;99.90
3542;DHT22;1785;47.388;8.538;2023-05-23T01:17:49;21.10;99.90
3542;DHT22;1785;47.388;8.538;2023-05-23T01:20:21;20.90;99.90
3542;DHT22;1785;47.388;8.538;2023-05-23T01:23:35;20.70;99.90
3542;DHT22;1785;47.388;8.538;2023-05-23T01:26:17;20.90;99.90
3542;DHT22;1785;47.388;8.538;2023-05-23T01:28:46;21.10;99.90
3542;DHT22;1785;47.388;8.538;2023-05-23T01:31:15;21.10;99.90
3542;DHT22;1785;47.388;8.538;2023-05-23T01:33:43;21.10;99.90
3542;DHT22;1785;47.388;8.538;2023-05-23T01:36:12;21.00;99.90
3542;DHT22;1785;47.388;8.538;2023-05-23T01:38:38;21.00;99.90
3542;DHT22;1785;47.388;8.538;2023-05-23T01:41:04;21.10;99.90
3542;DHT22;1785;47.388;8.538;2023-05-23T01:43:30;21.00;99.90
3542;DHT22;1785;47.388;8.538;2023-05-23T01:45:58;21.00;99.90
3542;DHT22;1785;47.388;8.538;2023-05-23T01:48:26;21.10;99.90
3542;DHT22;1785;47.388;8.538;2023-05-23T01:50:53;21.10;99.90
3542;DHT22;1785;47.388;8.538;2023-05-23T01:53:22;21.10;99.90
3542;DHT22;1785;47.388;8.538;2023-05-23T01:55:48;21.10;99.90
3542;DHT22;1785;47.388;8.538;2023-05-23T01:58:14;21.10;99.90
3542;DHT22;1785;47.388;8.538;2023-05-23T02:00:40;21.10;99.90
3542;DHT22;1785;47.388;8.538;2023-05-23T02:03:07;21.20;99.90
3542;DHT22;1785;47.388;8.538;2023-05-23T02:05:34;21.20;99.90
3542;DHT22;1785;47.388;8.538;2023-05-23T02:08:00;21.30;99.90
3542;DHT22;1785;47.388;8.538;2023-05-23T02:10:26;21.30;99.90
3542;DHT22;1785;47.388;8.538;2023-05-23T02:12:53;21.20;99.90
3542;DHT22;1785;47.388;8.538;2023-05-23T02:15:19;21.00;99.90
3542;DHT22;1785;47.388;8.538;2023-05-23T02:17:45;20.80;99.90
3542;DHT22;1785;47.388;8.538;2023-05-23T02:20:13;20.70;99.90
3542;DHT22;1785;47.388;8.538;2023-05-23T02:22:39;20.60;99.90
3542;DHT22;1785;47.388;8.538;2023-05-23T02:25:06;20.70;99.90
3542;DHT22;1785;47.388;8.538;2023-05-23T02:27:32;20.80;99.90
3542;DHT22;1785;47.388;8.538;2023-05-23T02:29:58;20.80;99.90
3542;DHT22;1785;47.388;8.538;2023-05-23T02:32:24;20.80;99.90
3542;DHT22;1785;47.388;8.538;2023-05-23T02:34:50;20.80;99.90
3542;DHT22;1785;47.388;8.538;2023-05-23T02:37:17;20.80;99.90
3542;DHT22;1785;47.388;8.538;2023-05-23T02:39:43;20.80;99.90
3542;DHT22;1785;47.388;8.538;2023-05-23T02:42:09;20.80;99.90
3542;DHT22;1785;47.388;8.538;2023-05-23T02:44:35;20.90;99.90
3542;DHT22;1785;47.388;8.538;2023-05-23T02:47:01;20.90;99.90
3542;DHT22;1785;47.388;8.538;2023-05-23T02:49:27;20.90;99.90
3542;DHT22;1785;47.388;8.538;2023-05-23T02:51:53;20.90;99.90
3542;DHT22;1785;47.388;8.538;2023-05-23T02:54:20;20.70;99.90
3542;DHT22;1785;47.388;8.538;2023-05-23T02:56:46;20.40;99.90
3542;DHT22;1785;47.388;8.538;2023-05-23T02:59:12;20.20;99.90
3542;DHT22;1785;47.388;8.538;2023-05-23T03:01:38;19.80;99.90
3542;DHT22;1785;47.388;8.538;2023-05-23T03:04:04;19.90;99.90
3542;DHT22;1785;47.388;8.538;2023-05-23T03:06:30;20.10;99.90
3542;DHT22;1785;47.388;8.538;2023-05-23T03:08:58;20.20;99.90
3542;DHT22;1785;47.388;8.538;2023-05-23T03:11:25;20.10;99.90
3542;DHT22;1785;47.388;8.538;2023-05-23T03:13:51;19.80;99.90
3542;DHT22;1785;47.388;8.538;2023-05-23T03:16:17;19.80;99.90
3542;DHT22;1785;47.388;8.538;2023-05-23T03:18:43;20.00;99.90
3542;DHT22;1785;47.388;8.538;2023-05-23T03:21:09;19.80;99.90
3542;DHT22;1785;47.388;8.538;2023-05-23T03:23:35;19.80;99.90
3542;DHT22;1785;47.388;8.538;2023-05-23T03:26:01;20.00;99.90
3542;DHT22;1785;47.388;8.538;2023-05-23T03:28:29;20.20;99.90
3542;DHT22;1785;47.388;8.538;2023-05-23T03:30:55;20.30;99.90
3542;DHT22;1785;47.388;8.538;2023-05-23T03:33:21;20.60;99.90
3542;DHT22;1785;47.388;8.538;2023-05-23T03:35:47;20.60;99.90
3542;DHT22;1785;47.388;8.538;2023-05-23T03:38:13;20.50;99.90
3542;DHT22;1785;47.388;8.538;2023-05-23T03:40:39;20.50;99.90
3542;DHT22;1785;47.388;8.538;2023-05-23T03:43:07;20.50;99.90
3542;DHT22;1785;47.388;8.538;2023-05-23T03:45:34;20.30;99.90
3542;DHT22;1785;47.388;8.538;2023-05-23T03:48:00;20.30;99.90
3542;DHT22;1785;47.388;8.538;2023-05-23T03:50:26;20.00;99.90
3542;DHT22;1785;47.388;8.538;2023-05-23T03:52:52;19.70;99.90
3542;DHT22;1785;47.388;8.538;2023-05-23T03:55:19;19.80;99.90
3542;DHT22;1785;47.388;8.538;2023-05-23T03:57:46;19.90;99.90
3542;DHT22;1785;47.388;8.538;2023-05-23T04:00:13;20.00;99.90
3542;DHT22;1785;47.388;8.538;2023-05-23T04:02:40;19.80;99.90
3542;DHT22;1785;47.388;8.538;2023-05-23T04:05:07;19.50;99.90
3542;DHT22;1785;47.388;8.538;2023-05-23T04:07:33;19.20;99.90
3542;DHT22;1785;47.388;8.538;2023-05-23T04:09:59;19.40;99.90
3542;DHT22;1785;47.388;8.538;2023-05-23T04:12:25;19.50;99.90
3542;DHT22;1785;47.388;8.538;2023-05-23T04:14:51;19.60;99.90
3542;DHT22;1785;47.388;8.538;2023-05-23T04:17:17;19.30;99.90
3542;DHT22;1785;47.388;8.538;2023-05-23T04:19:44;19.50;99.90
3542;DHT22;1785;47.388;8.538;2023-05-23T04:22:10;19.40;99.90
3542;DHT22;1785;47.388;8.538;2023-05-23T04:24:37;19.20;99.90
3542;DHT22;1785;47.388;8.538;2023-05-23T04:27:03;19.10;99.90
3542;DHT22;1785;47.388;8.538;2023-05-23T04:29:30;19.00;99.90
3542;DHT22;1785;47.388;8.538;2023-05-23T04:31:56;18.90;99.90
3542;DHT22;1785;47.388;8.538;2023-05-23T04:34:23;18.80;99.90
3542;DHT22;1785;47.388;8.538;2023-05-23T04:36:50;18.80;99.90
3542;DHT22;1785;47.388;8.538;2023-05-23T04:39:18;18.80;99.90
3542;DHT22;1785;47.388;8.538;2023-05-23T04:41:44;19.10;99.90
3542;DHT22;1785;47.388;8.538;2023-05-23T04:44:10;19.40;99.90
3542;DHT22;1785;47.388;8.538;2023-05-23T04:46:37;19.60;99.90
3542;DHT22;1785;47.388;8.538;2023-05-23T04:49:06;19.80;99.90
3542;DHT22;1785;47.388;8.538;2023-05-23T04:51:32;19.70;99.90
3542;DHT22;1785;47.388;8.538;2023-05-23T04:54:00;19.40;99.90
3542;DHT22;1785;47.388;8.538;2023-05-23T04:56:26;19.20;99.90
3542;DHT22;1785;47.388;8.538;2023-05-23T04:58:53;19.10;99.90
3542;DHT22;1785;47.388;8.538;2023-05-23T05:01:19;19.00;99.90
3542;DHT22;1785;47.388;8.538;2023-05-23T05:03:45;19.20;99.90
3542;DHT22;1785;47.388;8.538;2023-05-23T05:06:14;19.30;99.90
3542;DHT22;1785;47.388;8.538;2023-05-23T05:08:40;19.40;99.90
3542;DHT22;1785;47.388;8.538;2023-05-23T05:11:08;19.30;99.90
3542;DHT22;1785;47.388;8.538;2023-05-23T05:13:34;19.20;99.90
3542;DHT22;1785;47.388;8.538;2023-05-23T05:16:00;19.20;99.90
3542;DHT22;1785;47.388;8.538;2023-05-23T05:18:27;19.40;99.90
3542;DHT22;1785;47.388;8.538;2023-05-23T05:20:54;19.30;99.90
3542;DHT22;1785;47.388;8.538;2023-05-23T05:23:24;19.50;99.90
3542;DHT22;1785;47.388;8.538;2023-05-23T05:25:50;19.40;99.90
3542;DHT22;1785;47.388;8.538;2023-05-23T05:28:17;19.50;99.90
3542;DHT22;1785;47.388;8.538;2023-05-23T05:30:43;19.80;99.90
3542;DHT22;1785;47.388;8.538;2023-05-23T05:33:10;19.80;99.90
3542;DHT22;1785;47.388;8.538;2023-05-23T05:35:36;19.70;99.90
3542;DHT22;1785;47.388;8.538;2023-05-23T05:38:03;19.60;99.90
3542;DHT22;1785;47.388;8.538;2023-05-23T05:40:29;19.60;99.90
3542;DHT22;1785;47.388;8.538;2023-05-23T05:42:55;19.80;99.90
3542;DHT22;1785;47.388;8.538;2023-05-23T05:45:22;19.50;99.90
3542;DHT22;1785;47.388;8.538;2023-05-23T05:47:48;19.50;99.90
3542;DHT22;1785;47.388;8.538;2023-05-23T05:50:14;19.70;99.90
3542;DHT22;1785;47.388;8.538;2023-05-23T05:52:40;19.90;99.90
3542;DHT22;1785;47.388;8.538;2023-05-23T05:55:08;19.90;99.90
3542;DHT22;1785;47.388;8.538;2023-05-23T05:57:35;19.90;99.90
3542;DHT22;1785;47.388;8.538;2023-05-23T06:00:04;19.60;99.90
3542;DHT22;1785;47.388;8.538;2023-05-23T06:02:37;19.80;99.90
3542;DHT22;1785;47.388;8.538;2023-05-23T06:05:04;19.80;99.90
3542;DHT22;1785;47.388;8.538;2023-05-23T06:07:32;20.00;99.90
3542;DHT22;1785;47.388;8.538;2023-05-23T06:09:58;19.90;99.90
3542;DHT22;1785;47.388;8.538;2023-05-23T06:12:24;19.90;99.90
3542;DHT22;1785;47.388;8.538;2023-05-23T06:14:51;19.80;99.90
3542;DHT22;1785;47.388;8.538;2023-05-23T06:17:22;20.00;99.90
3542;DHT22;1785;47.388;8.538;2023-05-23T06:19:50;20.00;99.90
3542;DHT22;1785;47.388;8.538;2023-05-23T06:22:16;20.00;99.90
3542;DHT22;1785;47.388;8.538;2023-05-23T06:24:43;20.20;99.90
3542;DHT22;1785;47.388;8.538;2023-05-23T06:27:09;20.40;99.90
3542;DHT22;1785;47.388;8.538;2023-05-23T06:29:35;20.50;99.90
3542;DHT22;1785;47.388;8.538;2023-05-23T06:32:01;20.50;99.90
3542;DHT22;1785;47.388;8.538;2023-05-23T06:34:28;20.10;99.90
3542;DHT22;1785;47.388;8.538;2023-05-23T06:36:54;19.90;99.90
3542;DHT22;1785;47.388;8.538;2023-05-23T06:39:20;19.80;99.90
3542;DHT22;1785;47.388;8.538;2023-05-23T06:41:47;20.10;99.90
3542;DHT22;1785;47.388;8.538;2023-05-23T06:44:13;20.20;99.90
3542;DHT22;1785;47.388;8.538;2023-05-23T06:46:41;20.20;99.90
3542;DHT22;1785;47.388;8.538;2023-05-23T06:49:08;20.20;99.90
3542;DHT22;1785;47.388;8.538;2023-05-23T06:51:34;20.00;99.90
3542;DHT22;1785;47.388;8.538;2023-05-23T06:54:01;20.30;99.90
3542;DHT22;1785;47.388;8.538;2023-05-23T06:56:27;20.10;99.90
3542;DHT22;1785;47.388;8.538;2023-05-23T06:58:53;20.10;99.90
3542;DHT22;1785;47.388;8.538;2023-05-23T07:01:19;20.00;99.90
3542;DHT22;1785;47.388;8.538;2023-05-23T07:03:45;20.00;99.90
3542;DHT22;1785;47.388;8.538;2023-05-23T07:06:11;19.90;99.90
3542;DHT22;1785;47.388;8.538;2023-05-23T07:08:38;20.00;99.90
3542;DHT22;1785;47.388;8.538;2023-05-23T07:11:05;20.30;99.90
3542;DHT22;1785;47.388;8.538;2023-05-23T07:13:31;20.60;99.90
3542;DHT22;1785;47.388;8.538;2023-05-23T07:15:57;20.40;99.90
3542;DHT22;1785;47.388;8.538;2023-05-23T07:18:23;20.30;99.90
3542;DHT22;1785;47.388;8.538;2023-05-23T07:20:50;20.50;99.90
3542;DHT22;1785;47.388;8.538;2023-05-23T07:23:16;20.40;99.90
3542;DHT22;1785;47.388;8.538;2023-05-23T07:25:42;20.40;99.90
3542;DHT22;1785;47.388;8.538;2023-05-23T07:28:09;20.20;99.90
3542;DHT22;1785;47.388;8.538;2023-05-23T07:30:35;20.40;99.90
3542;DHT22;1785;47.388;8.538;2023-05-23T07:33:01;20.40;99.90
3542;DHT22;1785;47.388;8.538;2023-05-23T07:35:27;20.70;99.90
3542;DHT22;1785;47.388;8.538;2023-05-23T07:37:54;20.70;99.90
3542;DHT22;1785;47.388;8.538;2023-05-23T07:40:21;20.50;99.90
3542;DHT22;1785;47.388;8.538;2023-05-23T07:42:48;20.50;99.90
3542;DHT22;1785;47.388;8.538;2023-05-23T07:45:15;20.60;99.90
3542;DHT22;1785;47.388;8.538;2023-05-23T07:47:41;20.80;99.90
3542;DHT22;1785;47.388;8.538;2023-05-23T07:50:08;20.40;99.90
3542;DHT22;1785;47.388;8.538;2023-05-23T07:52:34;20.30;99.90
3542;DHT22;1785;47.388;8.538;2023-05-23T07:55:00;20.20;99.90
3542;DHT22;1785;47.388;8.538;2023-05-23T07:57:26;20.10;99.90
3542;DHT22;1785;47.388;8.538;2023-05-23T07:59:53;20.40;99.90
3542;DHT22;1785;47.388;8.538;2023-05-23T08:02:20;20.20;99.90
3542;DHT22;1785;47.388;8.538;2023-05-23T08:04:47;20.30;99.90
3542;DHT22;1785;47.388;8.538;2023-05-23T08:07:14;20.30;99.90
3542;DHT22;1785;47.388;8.538;2023-05-23T08:09:40;20.10;99.90
3542;DHT22;1785;47.388;8.538;2023-05-23T08:12:06;20.30;99.90
3542;DHT22;1785;47.388;8.538;2023-05-23T08:14:33;20.40;99.90
3542;DHT22;1785;47.388;8.538;2023-05-23T08:16:59;20.70;99.90
3542;DHT22;1785;47.388;8.538;2023-05-23T08:19:26;20.50;99.90
3542;DHT22;1785;47.388;8.538;2023-05-23T08:21:52;20.40;99.90
3542;DHT22;1785;47.388;8.538;2023-05-23T08:24:18;20.80;99.90
3542;DHT22;1785;47.388;8.538;2023-05-23T08:26:44;21.10;99.90
3542;DHT22;1785;47.388;8.538;2023-05-23T08:29:11;21.40;99.90
3542;DHT22;1785;47.388;8.538;2023-05-23T08:31:37;21.60;99.90
3542;DHT22;1785;47.388;8.538;2023-05-23T08:34:03;21.60;99.90
3542;DHT22;1785;47.388;8.538;2023-05-23T08:36:29;21.40;99.90
3542;DHT22;1785;47.388;8.538;2023-05-23T08:38:58;21.00;99.90
3542;DHT22;1785;47.388;8.538;2023-05-23T08:41:25;20.70;99.90
3542;DHT22;1785;47.388;8.538;2023-05-23T08:43:52;21.10;99.90
3542;DHT22;1785;47.388;8.538;2023-05-23T08:46:18;21.40;99.90
3542;DHT22;1785;47.388;8.538;2023-05-23T08:48:50;21.60;99.90
3542;DHT22;1785;47.388;8.538;2023-05-23T08:51:17;21.60;99.90
3542;DHT22;1785;47.388;8.538;2023-05-23T08:53:45;21.50;99.90
3542;DHT22;1785;47.388;8.538;2023-05-23T08:56:13;21.60;99.90
3542;DHT22;1785;47.388;8.538;2023-05-23T08:58:41;21.70;99.90
3542;DHT22;1785;47.388;8.538;2023-05-23T09:01:07;21.80;99.90
3542;DHT22;1785;47.388;8.538;2023-05-23T09:03:35;21.80;99.90
3542;DHT22;1785;47.388;8.538;2023-05-23T09:06:02;21.90;99.90
3542;DHT22;1785;47.388;8.538;2023-05-23T09:08:29;21.90;99.90
3542;DHT22;1785;47.388;8.538;2023-05-23T09:10:55;22.00;99.90
3542;DHT22;1785;47.388;8.538;2023-05-23T09:13:22;22.20;99.90
3542;DHT22;1785;47.388;8.538;2023-05-23T09:16:11;22.40;99.90
3542;DHT22;1785;47.388;8.538;2023-05-23T09:18:39;22.40;99.90
3542;DHT22;1785;47.388;8.538;2023-05-23T09:21:07;22.60;99.90
3542;DHT22;1785;47.388;8.538;2023-05-23T09:23:34;22.60;99.90
3542;DHT22;1785;47.388;8.538;2023-05-23T09:26:02;22.80;99.90
3542;DHT22;1785;47.388;8.538;2023-05-23T09:28:29;22.70;99.90
3542;DHT22;1785;47.388;8.538;2023-05-23T09:30:58;22.60;99.90
3542;DHT22;1785;47.388;8.538;2023-05-23T09:33:29;22.60;99.90
3542;DHT22;1785;47.388;8.538;2023-05-23T09:35:58;22.70;99.90
3542;DHT22;1785;47.388;8.538;2023-05-23T09:38:24;23.00;99.90
3542;DHT22;1785;47.388;8.538;2023-05-23T09:40:53;22.90;99.90
3542;DHT22;1785;47.388;8.538;2023-05-23T09:43:21;23.00;99.90
3542;DHT22;1785;47.388;8.538;2023-05-23T09:45:47;23.10;99.90
3542;DHT22;1785;47.388;8.538;2023-05-23T09:48:13;23.30;99.90
3542;DHT22;1785;47.388;8.538;2023-05-23T09:50:40;23.20;99.90
3542;DHT22;1785;47.388;8.538;2023-05-23T09:53:06;23.30;99.90
3542;DHT22;1785;47.388;8.538;2023-05-23T09:55:32;23.50;99.90
3542;DHT22;1785;47.388;8.538;2023-05-23T09:57:59;23.70;99.90
3542;DHT22;1785;47.388;8.538;2023-05-23T10:00:26;23.50;99.90
3542;DHT22;1785;47.388;8.538;2023-05-23T10:02:54;23.30;99.90
3542;DHT22;1785;47.388;8.538;2023-05-23T10:05:32;23.50;99.90
3542;DHT22;1785;47.388;8.538;2023-05-23T10:08:00;23.50;99.90
3542;DHT22;1785;47.388;8.538;2023-05-23T10:10:30;23.70;99.90
3542;DHT22;1785;47.388;8.538;2023-05-23T10:12:57;23.70;99.90
3542;DHT22;1785;47.388;8.538;2023-05-23T10:15:26;23.80;99.90
3542;DHT22;1785;47.388;8.538;2023-05-23T10:18:08;23.80;99.90
3542;DHT22;1785;47.388;8.538;2023-05-23T10:20:39;23.50;99.90
3542;DHT22;1785;47.388;8.538;2023-05-23T10:23:08;23.00;99.90
3542;DHT22;1785;47.388;8.538;2023-05-23T10:25:34;22.90;99.90
3542;DHT22;1785;47.388;8.538;2023-05-23T10:28:01;23.00;99.90
3542;DHT22;1785;47.388;8.538;2023-05-23T10:30:29;23.10;99.90
3542;DHT22;1785;47.388;8.538;2023-05-23T10:32:56;23.50;99.90
3542;DHT22;1785;47.388;8.538;2023-05-23T10:35:37;23.60;99.90
3542;DHT22;1785;47.388;8.538;2023-05-23T10:38:15;23.50;99.90
3542;DHT22;1785;47.388;8.538;2023-05-23T10:40:51;23.50;99.90
3542;DHT22;1785;47.388;8.538;2023-05-23T10:43:24;23.70;99.90
3542;DHT22;1785;47.388;8.538;2023-05-23T10:45:52;24.00;99.90
3542;DHT22;1785;47.388;8.538;2023-05-23T10:48:32;23.90;99.90
3542;DHT22;1785;47.388;8.538;2023-05-23T10:51:04;23.90;99.90
3542;DHT22;1785;47.388;8.538;2023-05-23T10:53:31;24.20;99.90
3542;DHT22;1785;47.388;8.538;2023-05-23T10:55:57;24.60;99.90
3542;DHT22;1785;47.388;8.538;2023-05-23T10:58:23;24.80;99.90
3542;DHT22;1785;47.388;8.538;2023-05-23T11:00:52;25.00;99.90
3542;DHT22;1785;47.388;8.538;2023-05-23T11:03:29;25.10;99.90
3542;DHT22;1785;47.388;8.538;2023-05-23T11:05:56;25.20;99.90
3542;DHT22;1785;47.388;8.538;2023-05-23T11:08:23;25.30;99.90
3542;DHT22;1785;47.388;8.538;2023-05-23T11:10:54;25.20;99.90
3542;DHT22;1785;47.388;8.538;2023-05-23T11:13:21;24.80;99.90
3542;DHT22;1785;47.388;8.538;2023-05-23T11:15:48;24.60;99.90
3542;DHT22;1785;47.388;8.538;2023-05-23T11:18:23;24.10;99.90
3542;DHT22;1785;47.388;8.538;2023-05-23T11:20:51;24.20;99.90
3542;DHT22;1785;47.388;8.538;2023-05-23T11:23:19;24.60;99.90
3542;DHT22;1785;47.388;8.538;2023-05-23T11:25:48;24.70;99.90
3542;DHT22;1785;47.388;8.538;2023-05-23T11:28:15;25.00;99.90
3542;DHT22;1785;47.388;8.538;2023-05-23T11:30:42;25.30;99.90
3542;DHT22;1785;47.388;8.538;2023-05-23T11:33:09;25.40;99.90
3542;DHT22;1785;47.388;8.538;2023-05-23T11:35:39;25.50;99.90
3542;DHT22;1785;47.388;8.538;2023-05-23T11:38:05;25.10;99.90
3542;DHT22;1785;47.388;8.538;2023-05-23T11:40:33;24.70;99.90
3542;DHT22;1785;47.388;8.538;2023-05-23T11:43:01;25.00;99.90
3542;DHT22;1785;47.388;8.538;2023-05-23T11:45:29;25.30;99.90
3542;DHT22;1785;47.388;8.538;2023-05-23T11:47:57;25.20;99.90
3542;DHT22;1785;47.388;8.538;2023-05-23T11:50:23;25.30;99.90
3542;DHT22;1785;47.388;8.538;2023-05-23T11:52:50;25.40;99.90
3542;DHT22;1785;47.388;8.538;2023-05-23T11:55:16;25.30;99.90
3542;DHT22;1785;47.388;8.538;2023-05-23T11:57:43;25.20;99.90
3542;DHT22;1785;47.388;8.538;2023-05-23T12:00:10;25.50;99.90
3542;DHT22;1785;47.388;8.538;2023-05-23T12:02:38;24.50;99.90
3542;DHT22;1785;47.388;8.538;2023-05-23T12:05:07;24.30;99.90
3542;DHT22;1785;47.388;8.538;2023-05-23T12:07:33;24.30;99.90
3542;DHT22;1785;47.388;8.538;2023-05-23T12:10:02;24.10;99.90
3542;DHT22;1785;47.388;8.538;2023-05-23T12:12:28;23.70;99.90
3542;DHT22;1785;47.388;8.538;2023-05-23T12:14:56;23.10;99.90
3542;DHT22;1785;47.388;8.538;2023-05-23T12:17:22;23.00;99.90
3542;DHT22;1785;47.388;8.538;2023-05-23T12:19:49;22.80;99.90
3542;DHT22;1785;47.388;8.538;2023-05-23T12:22:21;22.80;99.90
3542;DHT22;1785;47.388;8.538;2023-05-23T12:24:48;22.60;99.90
3542;DHT22;1785;47.388;8.538;2023-05-23T12:27:15;22.70;99.90
3542;DHT22;1785;47.388;8.538;2023-05-23T12:29:49;22.70;99.90
3542;DHT22;1785;47.388;8.538;2023-05-23T12:32:16;22.80;99.90
3542;DHT22;1785;47.388;8.538;2023-05-23T12:34:42;22.50;99.90
3542;DHT22;1785;47.388;8.538;2023-05-23T12:37:08;22.40;99.90
3542;DHT22;1785;47.388;8.538;2023-05-23T12:39:36;22.40;99.90
3542;DHT22;1785;47.388;8.538;2023-05-23T12:42:08;22.10;99.90
3542;DHT22;1785;47.388;8.538;2023-05-23T12:44:35;22.10;99.90
3542;DHT22;1785;47.388;8.538;2023-05-23T12:47:02;22.10;99.90
3542;DHT22;1785;47.388;8.538;2023-05-23T12:49:28;22.30;99.90
3542;DHT22;1785;47.388;8.538;2023-05-23T12:51:54;22.20;99.90
3542;DHT22;1785;47.388;8.538;2023-05-23T12:54:20;22.10;99.90
3542;DHT22;1785;47.388;8.538;2023-05-23T12:56:46;22.10;99.90
3542;DHT22;1785;47.388;8.538;2023-05-23T12:59:12;22.00;99.90
3542;DHT22;1785;47.388;8.538;2023-05-23T13:01:39;22.60;99.90
3542;DHT22;1785;47.388;8.538;2023-05-23T13:04:05;22.70;99.90
3542;DHT22;1785;47.388;8.538;2023-05-23T13:06:31;22.80;99.90
3542;DHT22;1785;47.388;8.538;2023-05-23T13:08:58;22.90;99.90
3542;DHT22;1785;47.388;8.538;2023-05-23T13:11:24;23.20;99.90
3542;DHT22;1785;47.388;8.538;2023-05-23T13:13:51;23.20;99.90
3542;DHT22;1785;47.388;8.538;2023-05-23T13:16:17;23.30;99.90
3542;DHT22;1785;47.388;8.538;2023-05-23T13:18:44;23.50;99.90
3542;DHT22;1785;47.388;8.538;2023-05-23T13:21:10;23.70;99.90
3542;DHT22;1785;47.388;8.538;2023-05-23T13:23:36;23.60;99.90
3542;DHT22;1785;47.388;8.538;2023-05-23T13:26:04;23.70;99.90
3542;DHT22;1785;47.388;8.538;2023-05-23T13:28:31;24.10;99.90
3542;DHT22;1785;47.388;8.538;2023-05-23T13:30:57;24.40;99.90
3542;DHT22;1785;47.388;8.538;2023-05-23T13:33:24;24.50;99.90
3542;DHT22;1785;47.388;8.538;2023-05-23T13:35:51;24.60;99.90
3542;DHT22;1785;47.388;8.538;2023-05-23T13:38:19;24.00;99.90
3542;DHT22;1785;47.388;8.538;2023-05-23T13:40:45;24.00;99.90
3542;DHT22;1785;47.388;8.538;2023-05-23T13:43:11;24.00;99.90
3542;DHT22;1785;47.388;8.538;2023-05-23T13:45:37;24.10;99.90
3542;DHT22;1785;47.388;8.538;2023-05-23T13:48:04;24.10;99.90
3542;DHT22;1785;47.388;8.538;2023-05-23T13:50:30;23.80;99.90
3542;DHT22;1785;47.388;8.538;2023-05-23T13:52:57;23.70;99.90
3542;DHT22;1785;47.388;8.538;2023-05-23T13:55:24;23.60;99.90
3542;DHT22;1785;47.388;8.538;2023-05-23T13:57:50;23.70;99.90
3542;DHT22;1785;47.388;8.538;2023-05-23T14:00:16;23.80;99.90
3542;DHT22;1785;47.388;8.538;2023-05-23T14:02:43;23.70;99.90
3542;DHT22;1785;47.388;8.538;2023-05-23T14:05:09;23.70;99.90
3542;DHT22;1785;47.388;8.538;2023-05-23T14:07:35;23.60;99.90
3542;DHT22;1785;47.388;8.538;2023-05-23T14:10:03;23.70;99.90
3542;DHT22;1785;47.388;8.538;2023-05-23T14:12:30;23.90;99.90
3542;DHT22;1785;47.388;8.538;2023-05-23T14:14:56;24.20;99.90
3542;DHT22;1785;47.388;8.538;2023-05-23T14:17:22;24.40;99.90
3542;DHT22;1785;47.388;8.538;2023-05-23T14:19:49;24.70;99.90
3542;DHT22;1785;47.388;8.538;2023-05-23T14:22:15;25.00;99.90
3542;DHT22;1785;47.388;8.538;2023-05-23T14:24:41;25.00;99.90
3542;DHT22;1785;47.388;8.538;2023-05-23T14:27:08;24.80;99.90
3542;DHT22;1785;47.388;8.538;2023-05-23T14:29:34;24.00;99.90
3542;DHT22;1785;47.388;8.538;2023-05-23T14:32:00;23.10;99.90
3542;DHT22;1785;47.388;8.538;2023-05-23T14:34:28;22.90;99.90
3542;DHT22;1785;47.388;8.538;2023-05-23T14:36:54;23.00;99.90
3542;DHT22;1785;47.388;8.538;2023-05-23T14:39:20;22.90;99.90
3542;DHT22;1785;47.388;8.538;2023-05-23T14:41:46;23.00;99.90
3542;DHT22;1785;47.388;8.538;2023-05-23T14:44:13;23.20;99.90
3542;DHT22;1785;47.388;8.538;2023-05-23T14:46:39;23.70;99.90
3542;DHT22;1785;47.388;8.538;2023-05-23T14:49:07;24.10;99.90
3542;DHT22;1785;47.388;8.538;2023-05-23T14:51:33;23.90;99.90
3542;DHT22;1785;47.388;8.538;2023-05-23T14:53:59;24.10;99.90
3542;DHT22;1785;47.388;8.538;2023-05-23T14:56:25;24.40;99.90
3542;DHT22;1785;47.388;8.538;2023-05-23T14:58:52;24.60;99.90
3542;DHT22;1785;47.388;8.538;2023-05-23T15:01:19;24.80;99.90
3542;DHT22;1785;47.388;8.538;2023-05-23T15:03:45;24.90;99.90
3542;DHT22;1785;47.388;8.538;2023-05-23T15:06:11;25.00;99.90
3542;DHT22;1785;47.388;8.538;2023-05-23T15:08:37;25.10;99.90
3542;DHT22;1785;47.388;8.538;2023-05-23T15:11:03;25.30;99.90
3542;DHT22;1785;47.388;8.538;2023-05-23T15:13:30;25.60;99.90
3542;DHT22;1785;47.388;8.538;2023-05-23T15:15:56;26.10;99.90
3542;DHT22;1785;47.388;8.538;2023-05-23T15:18:24;26.60;99.90
3542;DHT22;1785;47.388;8.538;2023-05-23T15:20:50;26.80;99.90
3542;DHT22;1785;47.388;8.538;2023-05-23T15:23:16;27.10;99.90
3542;DHT22;1785;47.388;8.538;2023-05-23T15:25:42;27.40;99.90
3542;DHT22;1785;47.388;8.538;2023-05-23T15:28:08;27.60;99.90
3542;DHT22;1785;47.388;8.538;2023-05-23T15:30:34;28.00;99.90
3542;DHT22;1785;47.388;8.538;2023-05-23T15:33:01;27.90;99.90
3542;DHT22;1785;47.388;8.538;2023-05-23T15:35:29;27.80;99.90
3542;DHT22;1785;47.388;8.538;2023-05-23T15:37:55;27.70;99.90
3542;DHT22;1785;47.388;8.538;2023-05-23T15:40:22;27.60;99.90
3542;DHT22;1785;47.388;8.538;2023-05-23T15:42:48;27.40;99.90
3542;DHT22;1785;47.388;8.538;2023-05-23T15:45:15;27.60;99.90
3542;DHT22;1785;47.388;8.538;2023-05-23T15:47:41;27.80;99.90
3542;DHT22;1785;47.388;8.538;2023-05-23T15:50:08;27.60;99.90
3542;DHT22;1785;47.388;8.538;2023-05-23T15:52:35;26.80;99.90
3542;DHT22;1785;47.388;8.538;2023-05-23T15:55:01;25.90;99.90
3542;DHT22;1785;47.388;8.538;2023-05-23T15:57:30;25.20;99.90
3542;DHT22;1785;47.388;8.538;2023-05-23T15:59:56;25.00;99.90
3542;DHT22;1785;47.388;8.538;2023-05-23T16:02:22;24.90;99.90